MSC Canberra — H8KT — position and weather

sailwx.info

Track history (hours):
 
Tides and Currents Weather Stations Pressure Air Temp Water Temp Dewpoint Dewpoint Depression Visibility Wind Speed Wind Dir Waves Ship Positions

MSC Canberra

Last reported at 2018-Jan-19 03:56 UTC. Time now 2018-Jan-19 08:00 UTC.
Position N 45°34' W 073°31'.

Length 220 m; beam 30.6 m; draft 12 m.

Type: Cargo ship. MMSI: 357455000.

Date/timePositionNaut miles runAvg speedWind from/ knotsBaromVisibWave heightAir tempDewpointWater temp
2018-Jan-19 03:56N 45°34' W 073°31'7 2.5
2018-Jan-19 01:05N 45°40' W 073°28'210.2
2018-Jan-19 00:50N 45°43' W 073°26'  
2018-Jan-11 10:57N 31°56' W 080°23'4 8.9
2018-Jan-11 10:30N 31°56' W 080°27'4 8.6
2018-Jan-11 10:00N 31°56' W 080°32'4 8.7
2018-Jan-11 09:30N 31°57' W 080°37'4 8.8
2018-Jan-11 09:00N 31°57' W 080°43'5 9.6
2018-Jan-11 08:30N 32°00' W 080°47'5 9.9
2018-Jan-11 08:00N 32°02' W 080°53'610.8
2018-Jan-11 07:30N 32°04' W 080°58'4 7.9
2018-Jan-11 07:00N 32°05' W 081°03'3 6.0
2018-Jan-11 06:30N 32°06' W 081°06'2 4.4
2018-Jan-11 06:00N 32°07' W 081°08'0 0.0
2018-Jan-11 05:27N 32°07' W 081°08'0 0.0
2018-Jan-11 04:57N 32°07' W 081°08'0 0.0
2018-Jan-11 04:27N 32°07' W 081°08'0 0.0
2018-Jan-11 03:57N 32°07' W 081°08'0 0.0
2018-Jan-11 03:21N 32°07' W 081°08'0 0.0
2018-Jan-11 02:57N 32°07' W 081°08'0 0.0
2018-Jan-11 02:30N 32°07' W 081°08'0 0.5
2018-Jan-11 02:00N 32°07' W 081°08'3 5.9
2018-Jan-11 01:29N 32°05' W 081°05'3 5.5
2018-Jan-11 01:00N 32°05' W 081°02'3 5.7
2018-Jan-11 00:30N 32°05' W 080°59'5 9.8
2018-Jan-11 00:00N 32°02' W 080°54'510.0
2018-Jan-10 23:30N 32°01' W 080°48'611.7
2018-Jan-10 23:00N 31°58' W 080°42'3 5.1
2018-Jan-10 22:24N 31°57' W 080°39'5 6.8
2018-Jan-10 21:41N 31°57' W 080°33'  
Track history (hours):
 
Tides and Currents Weather Stations Pressure Air Temp Water Temp Dewpoint Dewpoint Depression Visibility Wind Speed Wind Dir Waves Ship Positions

MSC Canberra

Last reported at 2018-Jan-19 03:56 UTC. Time now 2018-Jan-19 08:00 UTC.
Position N 45°34' W 073°31'.

Length 220 m; beam 30.6 m; draft 12 m.

Type: Cargo ship. MMSI: 357455000.

Date/timePositionNaut miles runAvg speedWind from/ knotsBaromVisibWave heightAir tempDewpointWater temp
2018-Jan-19 03:56N 45°34' W 073°31'7 2.5
2018-Jan-19 01:05N 45°40' W 073°28'210.2
2018-Jan-19 00:50N 45°43' W 073°26'  
2018-Jan-11 10:57N 31°56' W 080°23'4 8.9
2018-Jan-11 10:30N 31°56' W 080°27'4 8.6
2018-Jan-11 10:00N 31°56' W 080°32'4 8.7
2018-Jan-11 09:30N 31°57' W 080°37'4 8.8
2018-Jan-11 09:00N 31°57' W 080°43'5 9.6
2018-Jan-11 08:30N 32°00' W 080°47'5 9.9
2018-Jan-11 08:00N 32°02' W 080°53'610.8
2018-Jan-11 07:30N 32°04' W 080°58'4 7.9
2018-Jan-11 07:00N 32°05' W 081°03'3 6.0
2018-Jan-11 06:30N 32°06' W 081°06'2 4.4
2018-Jan-11 06:00N 32°07' W 081°08'0 0.0
2018-Jan-11 05:27N 32°07' W 081°08'0 0.0
2018-Jan-11 04:57N 32°07' W 081°08'0 0.0
2018-Jan-11 04:27N 32°07' W 081°08'0 0.0
2018-Jan-11 03:57N 32°07' W 081°08'0 0.0
2018-Jan-11 03:21N 32°07' W 081°08'0 0.0
2018-Jan-11 02:57N 32°07' W 081°08'0 0.0
2018-Jan-11 02:30N 32°07' W 081°08'0 0.5
2018-Jan-11 02:00N 32°07' W 081°08'3 5.9
2018-Jan-11 01:29N 32°05' W 081°05'3 5.5
2018-Jan-11 01:00N 32°05' W 081°02'3 5.7
2018-Jan-11 00:30N 32°05' W 080°59'5 9.8
2018-Jan-11 00:00N 32°02' W 080°54'510.0
2018-Jan-10 23:30N 32°01' W 080°48'611.7
2018-Jan-10 23:00N 31°58' W 080°42'3 5.1
2018-Jan-10 22:24N 31°57' W 080°39'5 6.8
2018-Jan-10 21:41N 31°57' W 080°33'  

Dump ship's entire track history